createdAt,value
2018-08-17T08:47:21.807Z,2.80
2018-08-17T08:49:50.418Z,2.87
2018-08-17T08:52:19.032Z,3.40
2018-08-17T08:54:50.619Z,3.40
2018-08-17T08:57:19.188Z,3.00
2018-08-17T08:59:47.776Z,2.80
2018-08-17T09:02:16.342Z,3.80
2018-08-17T09:04:44.929Z,3.60
2018-08-17T09:07:13.545Z,3.50
2018-08-17T09:09:42.161Z,2.93
2018-08-17T09:12:11.076Z,3.97
2018-08-17T09:14:39.687Z,4.80
2018-08-17T09:17:08.298Z,4.60
2018-08-17T09:19:36.874Z,4.80
2018-08-17T09:22:06.680Z,4.03
2018-08-17T09:24:35.309Z,3.50
2018-08-17T09:27:03.960Z,3.00
2018-08-17T09:29:32.628Z,2.90
2018-08-17T09:32:01.433Z,2.50
2018-08-17T09:34:30.021Z,2.90
2018-08-17T09:36:58.849Z,2.50
2018-08-17T09:39:27.845Z,3.50
2018-08-17T09:41:56.589Z,4.00
2018-08-17T09:44:25.281Z,21.30
2018-08-17T09:46:54.116Z,11.30
2018-08-17T09:49:22.776Z,6.23
2018-08-17T09:51:51.351Z,3.30
2018-08-17T09:54:19.878Z,3.30
2018-08-17T09:56:48.452Z,2.77
2018-08-17T09:59:17.020Z,3.40
2018-08-17T10:01:50.874Z,2.83
2018-08-17T10:04:24.724Z,3.23
2018-08-17T10:06:58.496Z,2.90
2018-08-17T10:10:29.364Z,2.93
2018-08-17T10:12:57.936Z,2.90
2018-08-17T10:15:26.644Z,2.87
2018-08-17T10:17:55.275Z,3.40
2018-08-17T10:20:24.455Z,3.10
2018-08-17T10:22:53.108Z,3.43
2018-08-17T10:25:24.297Z,3.70
2018-08-17T10:27:54.240Z,4.20
2018-08-17T10:30:23.590Z,3.57
2018-08-17T10:33:00.639Z,3.60
2018-08-17T10:35:36.069Z,2.70
2018-08-17T10:38:06.695Z,2.37
2018-08-17T10:40:36.255Z,2.97
2018-08-17T10:43:06.111Z,2.43
2018-08-17T10:45:35.216Z,3.00
2018-08-17T10:48:03.837Z,2.80
2018-08-17T10:50:33.473Z,2.80
2018-08-17T10:53:03.207Z,2.83
2018-08-17T10:55:42.048Z,2.33
2018-08-17T10:58:13.451Z,2.60
2018-08-17T11:00:42.266Z,2.50
2018-08-17T11:03:11.300Z,2.50
2018-08-17T11:05:40.152Z,3.43
2018-08-17T11:08:08.904Z,2.83
2018-08-17T11:10:37.459Z,2.50
2018-08-17T11:13:06.210Z,3.40
2018-08-17T11:15:34.778Z,2.43
2018-08-17T11:18:03.368Z,2.80
2018-08-17T11:20:32.053Z,3.20
2018-08-17T11:23:00.634Z,3.73
2018-08-17T11:25:29.160Z,3.30
2018-08-17T11:27:57.732Z,3.27
2018-08-17T11:30:26.316Z,3.60
2018-08-17T11:32:54.900Z,3.00
2018-08-17T11:35:23.526Z,3.57
2018-08-17T11:37:52.344Z,2.60
2018-08-17T11:40:20.949Z,2.70
2018-08-17T11:42:50.782Z,2.90
2018-08-17T11:45:20.955Z,2.93
2018-08-17T11:47:50.077Z,3.07
2018-08-17T11:50:21.135Z,3.10
2018-08-17T11:53:04.815Z,3.30
2018-08-17T11:55:34.325Z,2.70
2018-08-17T11:58:03.028Z,2.70
2018-08-17T12:00:35.997Z,3.03
2018-08-17T12:03:04.915Z,3.20
2018-08-17T12:05:33.695Z,2.60
2018-08-17T12:08:02.353Z,3.03
2018-08-17T12:10:30.880Z,2.73
2018-08-17T12:13:03.672Z,2.80
2018-08-17T12:15:36.608Z,3.07
2018-08-17T12:18:05.451Z,2.87
2018-08-17T12:20:34.015Z,3.50
2018-08-17T12:23:02.580Z,3.07
2018-08-17T12:25:31.242Z,2.67
2018-08-17T12:28:01.712Z,3.00
2018-08-17T12:30:30.293Z,3.30
2018-08-17T12:32:58.864Z,2.80
2018-08-17T12:35:27.488Z,3.20
2018-08-17T12:38:01.329Z,2.93
2018-08-17T12:40:35.867Z,2.80
2018-08-17T12:43:04.473Z,2.93
2018-08-17T12:45:33.036Z,2.87
2018-08-17T12:48:01.600Z,3.43
2018-08-17T12:50:30.180Z,3.10
2018-08-17T12:52:58.748Z,3.00
2018-08-17T12:55:27.300Z,3.30
2018-08-17T12:57:55.880Z,3.20
2018-08-17T13:00:24.585Z,3.07
2018-08-17T13:02:53.153Z,3.37
2018-08-17T13:05:21.680Z,3.13
2018-08-17T13:07:50.249Z,2.97
2018-08-17T13:10:18.820Z,2.40
2018-08-17T13:12:54.940Z,3.50
2018-08-17T13:15:23.850Z,3.27
2018-08-17T13:17:52.436Z,3.63
2018-08-17T13:20:21.378Z,2.60
2018-08-17T13:22:50.712Z,2.87
2018-08-17T13:25:20.645Z,3.20
2018-08-17T13:27:49.198Z,3.10
2018-08-17T13:30:17.789Z,2.70
2018-08-17T13:32:46.341Z,2.63
2018-08-17T13:35:14.873Z,2.90
2018-08-17T13:37:43.995Z,2.93
2018-08-17T13:40:12.584Z,2.80
2018-08-17T13:42:41.197Z,3.10
2018-08-17T13:45:10.841Z,2.50
2018-08-17T13:47:39.566Z,2.60
2018-08-17T13:50:08.176Z,3.37
2018-08-17T13:52:36.737Z,3.10
2018-08-17T13:55:05.305Z,3.53
2018-08-17T13:57:33.881Z,3.50
2018-08-17T14:00:02.469Z,2.90
2018-08-17T14:02:31.073Z,2.90
2018-08-17T14:04:59.618Z,2.67
2018-08-17T14:07:28.224Z,3.50
2018-08-17T14:09:56.838Z,3.63
2018-08-17T14:12:25.357Z,3.40
2018-08-17T14:14:53.934Z,2.97
2018-08-17T14:17:22.543Z,2.63
2018-08-17T14:19:51.352Z,3.60
2018-08-17T14:22:19.983Z,3.03
2018-08-17T14:24:49.126Z,3.30
2018-08-17T14:27:17.674Z,3.30
2018-08-17T14:29:46.216Z,3.10
2018-08-17T14:32:14.800Z,3.07
2018-08-17T14:34:43.570Z,4.03
2018-08-17T14:37:14.173Z,3.10
2018-08-17T14:39:42.740Z,3.03
2018-08-17T14:42:11.285Z,3.67
2018-08-17T14:44:39.854Z,2.77
2018-08-17T14:47:08.509Z,3.70
2018-08-17T14:49:37.059Z,3.77
2018-08-17T14:52:05.612Z,3.43
2018-08-17T14:54:34.205Z,3.70
2018-08-17T14:57:02.792Z,3.87
2018-08-17T14:59:31.492Z,3.40
2018-08-17T15:02:00.063Z,3.77
2018-08-17T15:04:28.906Z,3.37
2018-08-17T15:06:57.621Z,3.40
2018-08-17T15:09:26.459Z,3.03
2018-08-17T15:11:55.029Z,3.90
2018-08-17T15:14:23.798Z,3.60
2018-08-17T15:16:52.372Z,3.87
2018-08-17T15:19:20.972Z,3.23
2018-08-17T15:21:49.549Z,3.70
2018-08-17T15:24:18.164Z,3.17
2018-08-17T15:26:46.721Z,4.03
2018-08-17T15:29:15.269Z,3.27
2018-08-17T15:31:43.919Z,3.77
2018-08-17T15:34:12.486Z,3.37
2018-08-17T15:36:41.125Z,3.50
2018-08-17T15:39:09.972Z,3.40
2018-08-17T15:41:44.342Z,3.70
2018-08-17T15:44:24.017Z,3.17
2018-08-17T15:46:52.919Z,3.87
2018-08-17T15:49:33.440Z,3.17
2018-08-17T15:52:03.470Z,3.00
2018-08-17T15:54:32.074Z,5.03
2018-08-17T15:57:00.935Z,5.77
2018-08-17T15:59:29.653Z,7.77
2018-08-17T16:01:58.272Z,4.43
2018-08-17T16:04:26.886Z,4.47
2018-08-17T16:06:55.537Z,4.27
2018-08-17T16:09:24.149Z,6.83
2018-08-17T16:11:52.781Z,7.13
2018-08-17T16:14:21.692Z,4.93
2018-08-17T16:16:50.352Z,5.40
2018-08-17T16:19:18.988Z,4.27
2018-08-17T16:21:47.620Z,3.87
2018-08-17T16:24:16.206Z,3.80
2018-08-17T16:26:44.791Z,3.67
2018-08-17T16:29:13.407Z,4.00
2018-08-17T16:31:43.135Z,4.40
2018-08-17T16:34:11.957Z,3.73
2018-08-17T16:36:43.232Z,3.77
2018-08-17T16:39:17.719Z,3.80
2018-08-17T16:41:46.391Z,4.43
2018-08-17T16:44:15.404Z,4.40
2018-08-17T16:46:44.466Z,4.00
2018-08-17T16:49:13.550Z,3.70
2018-08-17T16:51:42.146Z,3.43
2018-08-17T16:54:10.836Z,3.50
2018-08-17T16:56:39.475Z,4.10
2018-08-17T16:59:08.152Z,4.40
2018-08-17T17:01:36.703Z,4.03
2018-08-17T17:04:05.311Z,4.53
2018-08-17T17:06:34.768Z,4.13
2018-08-17T17:09:06.616Z,4.50
2018-08-17T17:11:35.549Z,4.63
2018-08-17T17:14:04.305Z,5.13
2018-08-17T17:16:47.937Z,5.50
2018-08-17T17:19:20.619Z,4.70
2018-08-17T17:21:50.332Z,3.60
2018-08-17T17:24:19.651Z,4.50
2018-08-17T17:26:48.278Z,4.30
2018-08-17T17:29:16.871Z,4.10
2018-08-17T17:31:48.937Z,3.60
2018-08-17T17:34:17.496Z,3.80
2018-08-17T17:36:46.266Z,4.20
2018-08-17T17:39:15.489Z,3.93
2018-08-17T17:41:44.142Z,4.20
2018-08-17T17:44:12.866Z,4.50
2018-08-17T17:46:41.647Z,4.43
2018-08-17T17:49:10.871Z,4.43
2018-08-17T17:51:39.765Z,5.27
2018-08-17T17:54:08.596Z,3.90
2018-08-17T17:56:37.317Z,4.87
2018-08-17T17:59:10.979Z,4.27
2018-08-17T18:01:40.096Z,4.83
2018-08-17T18:04:08.705Z,4.90
2018-08-17T18:06:37.474Z,4.80
2018-08-17T18:09:07.380Z,3.70
2018-08-17T18:11:36.164Z,4.70
2018-08-17T18:14:04.736Z,4.57
2018-08-17T18:16:33.405Z,4.17
2018-08-17T18:19:02.641Z,4.30
2018-08-17T18:21:33.110Z,4.03
2018-08-17T18:24:06.727Z,4.50
2018-08-17T18:26:35.699Z,4.60
2018-08-17T18:29:04.443Z,5.53
2018-08-17T18:31:33.272Z,4.50
2018-08-17T18:34:01.920Z,4.33
2018-08-17T18:36:30.709Z,4.80
2018-08-17T18:38:59.356Z,4.87
2018-08-17T18:41:27.908Z,5.30
2018-08-17T18:43:56.847Z,4.40
2018-08-17T18:46:25.459Z,4.77
2018-08-17T18:48:54.940Z,5.17
2018-08-17T18:51:23.565Z,5.00
2018-08-17T18:53:52.130Z,4.73
2018-08-17T18:56:20.722Z,5.80
2018-08-17T18:58:49.352Z,6.00
2018-08-17T19:01:17.973Z,4.90
2018-08-17T19:03:46.544Z,5.00
2018-08-17T19:06:15.117Z,5.10
2018-08-17T19:08:45.907Z,5.10
2018-08-17T19:11:14.587Z,5.37
2018-08-17T19:13:44.585Z,4.83
2018-08-17T19:16:13.224Z,5.10
2018-08-17T19:18:41.917Z,5.30
2018-08-17T19:21:13.723Z,5.10
2018-08-17T19:23:42.287Z,6.30
2018-08-17T19:26:11.433Z,6.90
2018-08-17T19:28:40.044Z,6.20
2018-08-17T19:31:08.988Z,6.67
2018-08-17T19:33:37.596Z,5.80
2018-08-17T19:36:06.403Z,5.07
2018-08-17T19:38:37.822Z,5.53
2018-08-17T19:41:06.867Z,5.83
2018-08-17T19:43:36.272Z,4.90
2018-08-17T19:46:05.051Z,5.00
2018-08-17T19:48:33.690Z,4.20
2018-08-17T19:51:02.654Z,5.80
2018-08-17T19:53:31.340Z,5.80
2018-08-17T19:56:00.199Z,5.97
2018-08-17T19:58:28.808Z,5.07
2018-08-17T20:00:57.461Z,5.17
2018-08-17T20:03:26.094Z,4.90
2018-08-17T20:05:54.729Z,5.40
2018-08-17T20:08:23.411Z,5.90
2018-08-17T20:10:52.176Z,5.70
2018-08-17T20:13:20.845Z,5.33
2018-08-17T20:15:49.403Z,5.20
2018-08-17T20:18:18.041Z,5.53
2018-08-17T20:20:46.714Z,4.93
2018-08-17T20:23:15.295Z,5.30
2018-08-17T20:25:43.953Z,5.00
2018-08-17T20:28:12.469Z,5.40
2018-08-17T20:30:41.050Z,5.57
2018-08-17T20:33:17.387Z,5.13
2018-08-17T20:35:46.026Z,4.87
2018-08-17T20:38:14.606Z,5.30
2018-08-17T20:40:43.169Z,4.70
2018-08-17T20:43:11.849Z,5.27
2018-08-17T20:45:40.668Z,5.73
2018-08-17T20:48:09.605Z,5.10
2018-08-17T20:50:38.692Z,4.87
2018-08-17T20:53:07.332Z,5.10
2018-08-17T20:55:35.941Z,5.87
2018-08-17T20:58:04.569Z,6.13
2018-08-17T21:00:33.200Z,5.90
2018-08-17T21:03:01.862Z,5.80
2018-08-17T21:05:30.552Z,5.23
2018-08-17T21:07:59.095Z,5.43
2018-08-17T21:10:27.999Z,5.17
2018-08-17T21:12:56.704Z,4.93
2018-08-17T21:15:25.428Z,4.63
2018-08-17T21:17:54.036Z,5.10
2018-08-17T21:20:22.844Z,4.60
2018-08-17T21:22:51.523Z,5.30
2018-08-17T21:25:20.924Z,5.23
2018-08-17T21:27:49.565Z,5.10
2018-08-17T21:30:18.385Z,4.70
2018-08-17T21:32:46.952Z,5.20
2018-08-17T21:35:16.317Z,5.50
2018-08-17T21:37:44.901Z,5.03
2018-08-17T21:40:18.692Z,5.23
2018-08-17T21:42:50.225Z,5.10
2018-08-17T21:45:18.881Z,5.07
2018-08-17T21:47:47.433Z,4.87
2018-08-17T21:50:16.868Z,4.83
2018-08-17T21:52:45.955Z,4.63
2018-08-17T21:55:14.851Z,4.50
2018-08-17T21:57:43.924Z,4.57
2018-08-17T22:00:21.427Z,4.23
2018-08-17T22:02:50.100Z,5.90
2018-08-17T22:05:24.046Z,4.97
2018-08-17T22:07:52.778Z,5.30
2018-08-17T22:10:21.419Z,5.10
2018-08-17T22:12:50.295Z,4.50
2018-08-17T22:15:18.903Z,5.30
2018-08-17T22:17:47.745Z,4.63
2018-08-17T22:20:16.366Z,5.10
2018-08-17T22:22:44.949Z,5.17
2018-08-17T22:25:17.235Z,4.80
2018-08-17T22:27:45.996Z,4.43
2018-08-17T22:30:18.499Z,4.90
2018-08-17T22:32:47.083Z,5.73
2018-08-17T22:35:16.333Z,4.90
2018-08-17T22:37:44.884Z,5.10
2018-08-17T22:40:13.489Z,4.40
2018-08-17T22:42:42.117Z,3.67
2018-08-17T22:45:10.790Z,4.83
2018-08-17T22:47:39.392Z,5.03
2018-08-17T22:50:08.058Z,5.47
2018-08-17T22:52:36.644Z,4.13
2018-08-17T22:55:08.504Z,4.50
2018-08-17T22:57:37.128Z,4.07
2018-08-17T23:00:17.401Z,4.27
2018-08-17T23:02:46.991Z,4.23
2018-08-17T23:05:18.670Z,4.70
2018-08-17T23:07:47.288Z,4.90
2018-08-17T23:10:20.009Z,4.80
2018-08-17T23:12:49.814Z,4.73
2018-08-17T23:15:18.459Z,4.23
2018-08-17T23:17:48.864Z,3.90
2018-08-17T23:20:21.629Z,4.23
2018-08-17T23:22:51.349Z,4.10
2018-08-17T23:25:21.019Z,4.50
2018-08-17T23:27:50.424Z,3.77
2018-08-17T23:30:19.225Z,4.47
2018-08-17T23:32:48.115Z,4.60
2018-08-17T23:35:16.820Z,4.40
2018-08-17T23:37:45.479Z,4.37
2018-08-17T23:40:14.174Z,4.53
2018-08-17T23:42:42.908Z,4.63
2018-08-17T23:45:15.061Z,4.50
2018-08-17T23:47:43.624Z,3.80
2018-08-17T23:50:13.489Z,4.50
2018-08-17T23:52:42.274Z,4.23
2018-08-17T23:55:16.499Z,4.13
2018-08-17T23:57:45.200Z,3.93
